Daihatsumaru — JD2764 — position and weather

sailwx.info

Track history (hours):
 
Tides and Currents Weather Stations Pressure Air Temp Water Temp Dewpoint Dewpoint Depression Visibility Wind Speed Wind Dir Waves Ship Positions

Daihatsumaru

Last reported at 2017-Feb-22 06:33 UTC. Time now 2017-Feb-22 06:43 UTC.
Position N 33°45' E 132°22'.

Length 106 m; draft 4.5 m.

Type: Cargo ship. MMSI: 431000701.

Date/timePositionNaut miles runAvg speedWind from/ knotsBaromVisibWave heightAir tempDewpointWater temp
2017-Feb-22 06:33N 33°45' E 132°22'12 0.9
2017-Feb-21 17:30N 33°48' E 132°08'1415.0
2017-Feb-21 16:33N 33°51' E 132°25'1615.6
2017-Feb-21 15:33N 33°57' E 132°42'12210.8
2017-Feb-21 04:14N 34°37' E 135°02'913.8
2017-Feb-21 03:34N 34°36' E 135°13'1010.2
2017-Feb-21 02:34N 34°41' E 135°23'0 0.0
2017-Feb-21 01:33N 34°41' E 135°23'0 0.0
2017-Feb-21 00:33N 34°41' E 135°23'0 0.0
2017-Feb-20 23:34N 34°41' E 135°23'3 2.8
2017-Feb-20 22:34N 34°40' E 135°20'0 0.1
2017-Feb-20 21:33N 34°40' E 135°20'0 0.0
2017-Feb-20 20:34N 34°40' E 135°20'6 5.7
2017-Feb-20 19:34N 34°36' E 135°15'1313.4
2017-Feb-20 18:33N 34°37' E 134°59'11913.2
2017-Feb-20 09:33N 33°57' E 132°43'6 5.7
2017-Feb-20 08:33N 33°52' E 132°42'2 1.8
2017-Feb-20 07:33N 33°52' E 132°40'1615.7
2017-Feb-20 06:33N 33°46' E 132°23'15 0.4
2017-Feb-18 19:31N 33°46' E 132°05'1414.9
2017-Feb-18 18:33N 33°50' E 132°22'1514.8
2017-Feb-18 17:33N 33°55' E 132°38'125 9.6
2017-Feb-18 04:30N 34°37' E 135°01'1415.0
2017-Feb-18 03:33N 34°38' E 135°18'5 5.3
2017-Feb-18 02:31N 34°41' E 135°23'0 0.1
2017-Feb-18 01:33N 34°41' E 135°23'0 0.0
2017-Feb-18 00:33N 34°41' E 135°23'0 0.0
2017-Feb-17 23:33N 34°41' E 135°23'2 2.5
2017-Feb-17 22:33N 34°40' E 135°21'0 0.2
2017-Feb-17 21:33N 34°40' E 135°21'0 0.0
2017-Feb-17 20:33N 34°40' E 135°21'9 9.1
2017-Feb-17 19:33N 34°35' E 135°11'1413.4
2017-Feb-17 18:32N 34°35' E 134°55'11412.5
2017-Feb-17 09:24N 33°58' E 132°44'7 8.0
2017-Feb-17 08:33N 33°52' E 132°42'1 0.6
2017-Feb-17 07:33N 33°52' E 132°42'1414.2
2017-Feb-17 06:33N 33°47' E 132°26'10 0.8
2017-Feb-16 18:11N 33°50' E 132°15'1015.1
2017-Feb-16 17:33N 33°51' E 132°27'1414.5
2017-Feb-16 16:33N 33°58' E 132°42'117 9.6
2017-Feb-16 04:22N 34°37' E 134°56'1315.5
2017-Feb-16 03:33N 34°36' E 135°11'1211.4
2017-Feb-16 02:32N 34°41' E 135°23'0 0.0
2017-Feb-16 01:33N 34°41' E 135°23'0 0.0
2017-Feb-16 00:33N 34°41' E 135°23'0 0.0
2017-Feb-15 23:33N 34°41' E 135°23'0 0.0
2017-Feb-15 22:33N 34°41' E 135°23'3 3.0
2017-Feb-15 21:33N 34°40' E 135°20'0 0.0
2017-Feb-15 20:33N 34°40' E 135°20'7 7.0
2017-Feb-15 19:34N 34°35' E 135°14'1514.9
2017-Feb-15 18:34N 34°36' E 134°56'11612.8
2017-Feb-15 09:33N 33°58' E 132°43'6 6.1
2017-Feb-15 08:33N 33°52' E 132°42'7 6.6
2017-Feb-15 07:33N 33°50' E 132°35'1514.2
2017-Feb-15 06:32N 33°44' E 132°19'5 0.4
2017-Feb-14 18:06N 33°43' E 132°13'815.2
2017-Feb-14 17:33N 33°45' E 132°22'1212.2
2017-Feb-14 16:33N 33°54' E 132°33'1413.6
2017-Feb-14 15:33N 34°02' E 132°46'11710.5
2017-Feb-14 04:24N 34°37' E 135°01'1213.8
2017-Feb-14 03:34N 34°37' E 135°15'8 7.9
2017-Feb-14 02:34N 34°41' E 135°23'0 0.0
2017-Feb-14 01:34N 34°41' E 135°23'0 0.0
2017-Feb-14 00:33N 34°41' E 135°23'0 0.0
2017-Feb-13 23:34N 34°41' E 135°23'2 2.3
2017-Feb-13 22:34N 34°40' E 135°21'0 0.4
2017-Feb-13 21:33N 34°40' E 135°21'0 0.0
2017-Feb-13 20:34N 34°40' E 135°21'0 0.0
2017-Feb-13 19:34N 34°40' E 135°21'8 7.8
2017-Feb-13 18:34N 34°35' E 135°13'1615.9
2017-Feb-13 17:34N 34°35' E 134°54'11213.6
2017-Feb-13 09:18N 34°00' E 132°45'912.0
2017-Feb-13 08:33N 33°52' E 132°42'0 0.1
2017-Feb-13 07:33N 33°52' E 132°42'9 9.0
2017-Feb-13 06:33N 33°49' E 132°32'1514.3
2017-Feb-13 05:31N 33°43' E 132°16'10 1.0
2017-Feb-12 19:07N 33°46' E 132°04'916.3
2017-Feb-12 18:33N 33°50' E 132°14'1616.3
2017-Feb-12 17:33N 33°53' E 132°33'  
Track history (hours):
 
Tides and Currents Weather Stations Pressure Air Temp Water Temp Dewpoint Dewpoint Depression Visibility Wind Speed Wind Dir Waves Ship Positions

Daihatsumaru

Last reported at 2017-Feb-22 06:33 UTC. Time now 2017-Feb-22 06:43 UTC.
Position N 33°45' E 132°22'.

Length 106 m; draft 4.5 m.

Type: Cargo ship. MMSI: 431000701.

Date/timePositionNaut miles runAvg speedWind from/ knotsBaromVisibWave heightAir tempDewpointWater temp
2017-Feb-22 06:33N 33°45' E 132°22'12 0.9
2017-Feb-21 17:30N 33°48' E 132°08'1415.0
2017-Feb-21 16:33N 33°51' E 132°25'1615.6
2017-Feb-21 15:33N 33°57' E 132°42'12210.8
2017-Feb-21 04:14N 34°37' E 135°02'913.8
2017-Feb-21 03:34N 34°36' E 135°13'1010.2
2017-Feb-21 02:34N 34°41' E 135°23'0 0.0
2017-Feb-21 01:33N 34°41' E 135°23'0 0.0
2017-Feb-21 00:33N 34°41' E 135°23'0 0.0
2017-Feb-20 23:34N 34°41' E 135°23'3 2.8
2017-Feb-20 22:34N 34°40' E 135°20'0 0.1
2017-Feb-20 21:33N 34°40' E 135°20'0 0.0
2017-Feb-20 20:34N 34°40' E 135°20'6 5.7
2017-Feb-20 19:34N 34°36' E 135°15'1313.4
2017-Feb-20 18:33N 34°37' E 134°59'11913.2
2017-Feb-20 09:33N 33°57' E 132°43'6 5.7
2017-Feb-20 08:33N 33°52' E 132°42'2 1.8
2017-Feb-20 07:33N 33°52' E 132°40'1615.7
2017-Feb-20 06:33N 33°46' E 132°23'15 0.4
2017-Feb-18 19:31N 33°46' E 132°05'1414.9
2017-Feb-18 18:33N 33°50' E 132°22'1514.8
2017-Feb-18 17:33N 33°55' E 132°38'125 9.6
2017-Feb-18 04:30N 34°37' E 135°01'1415.0
2017-Feb-18 03:33N 34°38' E 135°18'5 5.3
2017-Feb-18 02:31N 34°41' E 135°23'0 0.1
2017-Feb-18 01:33N 34°41' E 135°23'0 0.0
2017-Feb-18 00:33N 34°41' E 135°23'0 0.0
2017-Feb-17 23:33N 34°41' E 135°23'2 2.5
2017-Feb-17 22:33N 34°40' E 135°21'0 0.2
2017-Feb-17 21:33N 34°40' E 135°21'0 0.0
2017-Feb-17 20:33N 34°40' E 135°21'9 9.1
2017-Feb-17 19:33N 34°35' E 135°11'1413.4
2017-Feb-17 18:32N 34°35' E 134°55'11412.5
2017-Feb-17 09:24N 33°58' E 132°44'7 8.0
2017-Feb-17 08:33N 33°52' E 132°42'1 0.6
2017-Feb-17 07:33N 33°52' E 132°42'1414.2
2017-Feb-17 06:33N 33°47' E 132°26'10 0.8
2017-Feb-16 18:11N 33°50' E 132°15'1015.1
2017-Feb-16 17:33N 33°51' E 132°27'1414.5
2017-Feb-16 16:33N 33°58' E 132°42'117 9.6
2017-Feb-16 04:22N 34°37' E 134°56'1315.5
2017-Feb-16 03:33N 34°36' E 135°11'1211.4
2017-Feb-16 02:32N 34°41' E 135°23'0 0.0
2017-Feb-16 01:33N 34°41' E 135°23'0 0.0
2017-Feb-16 00:33N 34°41' E 135°23'0 0.0
2017-Feb-15 23:33N 34°41' E 135°23'0 0.0
2017-Feb-15 22:33N 34°41' E 135°23'3 3.0
2017-Feb-15 21:33N 34°40' E 135°20'0 0.0
2017-Feb-15 20:33N 34°40' E 135°20'7 7.0
2017-Feb-15 19:34N 34°35' E 135°14'1514.9
2017-Feb-15 18:34N 34°36' E 134°56'11612.8
2017-Feb-15 09:33N 33°58' E 132°43'6 6.1
2017-Feb-15 08:33N 33°52' E 132°42'7 6.6
2017-Feb-15 07:33N 33°50' E 132°35'1514.2
2017-Feb-15 06:32N 33°44' E 132°19'5 0.4
2017-Feb-14 18:06N 33°43' E 132°13'815.2
2017-Feb-14 17:33N 33°45' E 132°22'1212.2
2017-Feb-14 16:33N 33°54' E 132°33'1413.6
2017-Feb-14 15:33N 34°02' E 132°46'11710.5
2017-Feb-14 04:24N 34°37' E 135°01'1213.8
2017-Feb-14 03:34N 34°37' E 135°15'8 7.9
2017-Feb-14 02:34N 34°41' E 135°23'0 0.0
2017-Feb-14 01:34N 34°41' E 135°23'0 0.0
2017-Feb-14 00:33N 34°41' E 135°23'0 0.0
2017-Feb-13 23:34N 34°41' E 135°23'2 2.3
2017-Feb-13 22:34N 34°40' E 135°21'0 0.4
2017-Feb-13 21:33N 34°40' E 135°21'0 0.0
2017-Feb-13 20:34N 34°40' E 135°21'0 0.0
2017-Feb-13 19:34N 34°40' E 135°21'8 7.8
2017-Feb-13 18:34N 34°35' E 135°13'1615.9
2017-Feb-13 17:34N 34°35' E 134°54'11213.6
2017-Feb-13 09:18N 34°00' E 132°45'912.0
2017-Feb-13 08:33N 33°52' E 132°42'0 0.1
2017-Feb-13 07:33N 33°52' E 132°42'9 9.0
2017-Feb-13 06:33N 33°49' E 132°32'1514.3
2017-Feb-13 05:31N 33°43' E 132°16'10 1.0
2017-Feb-12 19:07N 33°46' E 132°04'916.3
2017-Feb-12 18:33N 33°50' E 132°14'1616.3
2017-Feb-12 17:33N 33°53' E 132°33'  

Dump ship's entire track history